sensor_id;sensor_type;location;lat;lon;timestamp;P1;durP1;ratioP1;P2;durP2;ratioP2
34497;SDS011;20744;50.938;7.286;2023-05-19T00:00:46;9.60;;;2.22;;
34497;SDS011;20744;50.938;7.286;2023-05-19T00:03:14;7.15;;;2.45;;
34497;SDS011;20744;50.938;7.286;2023-05-19T00:05:42;5.78;;;1.92;;
34497;SDS011;20744;50.938;7.286;2023-05-19T00:08:10;12.40;;;2.45;;
34497;SDS011;20744;50.938;7.286;2023-05-19T00:10:38;7.20;;;2.08;;
34497;SDS011;20744;50.938;7.286;2023-05-19T00:13:05;5.25;;;1.95;;
34497;SDS011;20744;50.938;7.286;2023-05-19T00:15:33;8.20;;;2.22;;
34497;SDS011;20744;50.938;7.286;2023-05-19T00:18:00;5.20;;;2.33;;
34497;SDS011;20744;50.938;7.286;2023-05-19T00:20:28;4.53;;;1.70;;
34497;SDS011;20744;50.938;7.286;2023-05-19T00:22:56;9.73;;;2.33;;
34497;SDS011;20744;50.938;7.286;2023-05-19T00:25:23;8.30;;;2.15;;
34497;SDS011;20744;50.938;7.286;2023-05-19T00:27:51;9.88;;;2.17;;
34497;SDS011;20744;50.938;7.286;2023-05-19T00:30:18;7.30;;;1.90;;
34497;SDS011;20744;50.938;7.286;2023-05-19T00:32:46;8.40;;;1.92;;
34497;SDS011;20744;50.938;7.286;2023-05-19T00:35:14;8.95;;;2.13;;
34497;SDS011;20744;50.938;7.286;2023-05-19T00:37:41;8.32;;;2.30;;
34497;SDS011;20744;50.938;7.286;2023-05-19T00:40:10;7.82;;;1.70;;
34497;SDS011;20744;50.938;7.286;2023-05-19T00:42:37;10.32;;;2.30;;
34497;SDS011;20744;50.938;7.286;2023-05-19T00:45:05;8.68;;;2.20;;
34497;SDS011;20744;50.938;7.286;2023-05-19T00:47:32;6.93;;;1.90;;
34497;SDS011;20744;50.938;7.286;2023-05-19T00:50:00;7.13;;;2.20;;
34497;SDS011;20744;50.938;7.286;2023-05-19T00:52:27;7.90;;;2.05;;
34497;SDS011;20744;50.938;7.286;2023-05-19T00:54:54;7.13;;;2.45;;
34497;SDS011;20744;50.938;7.286;2023-05-19T00:57:23;9.05;;;2.00;;
34497;SDS011;20744;50.938;7.286;2023-05-19T00:59:51;9.40;;;2.03;;
34497;SDS011;20744;50.938;7.286;2023-05-19T01:02:18;5.95;;;1.88;;
34497;SDS011;20744;50.938;7.286;2023-05-19T01:04:45;9.13;;;2.03;;
34497;SDS011;20744;50.938;7.286;2023-05-19T01:07:13;8.73;;;1.85;;
34497;SDS011;20744;50.938;7.286;2023-05-19T01:09:40;6.63;;;1.90;;
34497;SDS011;20744;50.938;7.286;2023-05-19T01:12:08;8.00;;;2.17;;
34497;SDS011;20744;50.938;7.286;2023-05-19T01:14:36;10.55;;;1.55;;
34497;SDS011;20744;50.938;7.286;2023-05-19T01:17:05;8.90;;;2.05;;
34497;SDS011;20744;50.938;7.286;2023-05-19T01:19:45;7.07;;;2.25;;
34497;SDS011;20744;50.938;7.286;2023-05-19T01:22:21;9.25;;;2.50;;
34497;SDS011;20744;50.938;7.286;2023-05-19T01:25:05;5.53;;;2.17;;
34497;SDS011;20744;50.938;7.286;2023-05-19T01:27:40;7.43;;;2.50;;
34497;SDS011;20744;50.938;7.286;2023-05-19T01:30:16;11.40;;;2.50;;
34497;SDS011;20744;50.938;7.286;2023-05-19T01:32:46;5.68;;;2.35;;
34497;SDS011;20744;50.938;7.286;2023-05-19T01:35:13;10.27;;;3.00;;
34497;SDS011;20744;50.938;7.286;2023-05-19T01:37:42;4.72;;;2.28;;
34497;SDS011;20744;50.938;7.286;2023-05-19T01:40:10;9.13;;;3.25;;
34497;SDS011;20744;50.938;7.286;2023-05-19T01:42:37;10.50;;;2.80;;
34497;SDS011;20744;50.938;7.286;2023-05-19T01:45:06;7.38;;;2.78;;
34497;SDS011;20744;50.938;7.286;2023-05-19T01:47:39;5.82;;;2.80;;
34497;SDS011;20744;50.938;7.286;2023-05-19T01:50:07;6.93;;;2.60;;
34497;SDS011;20744;50.938;7.286;2023-05-19T01:52:34;7.60;;;2.70;;
34497;SDS011;20744;50.938;7.286;2023-05-19T01:55:01;9.57;;;2.50;;
34497;SDS011;20744;50.938;7.286;2023-05-19T01:57:30;7.80;;;2.75;;
34497;SDS011;20744;50.938;7.286;2023-05-19T01:59:59;9.68;;;2.70;;
34497;SDS011;20744;50.938;7.286;2023-05-19T02:02:33;7.85;;;3.00;;
34497;SDS011;20744;50.938;7.286;2023-05-19T02:05:06;7.75;;;2.50;;
34497;SDS011;20744;50.938;7.286;2023-05-19T02:07:36;8.98;;;3.05;;
34497;SDS011;20744;50.938;7.286;2023-05-19T02:10:05;12.73;;;2.47;;
34497;SDS011;20744;50.938;7.286;2023-05-19T02:12:35;7.80;;;2.90;;
34497;SDS011;20744;50.938;7.286;2023-05-19T02:15:04;8.80;;;3.05;;
34497;SDS011;20744;50.938;7.286;2023-05-19T02:17:33;5.55;;;2.97;;
34497;SDS011;20744;50.938;7.286;2023-05-19T02:20:01;11.00;;;3.42;;
34497;SDS011;20744;50.938;7.286;2023-05-19T02:22:30;6.47;;;2.95;;
34497;SDS011;20744;50.938;7.286;2023-05-19T02:24:57;8.80;;;3.20;;
34497;SDS011;20744;50.938;7.286;2023-05-19T02:27:25;7.05;;;2.70;;
34497;SDS011;20744;50.938;7.286;2023-05-19T02:29:52;5.90;;;2.90;;
34497;SDS011;20744;50.938;7.286;2023-05-19T02:32:19;9.07;;;2.80;;
34497;SDS011;20744;50.938;7.286;2023-05-19T02:34:47;11.25;;;3.30;;
34497;SDS011;20744;50.938;7.286;2023-05-19T02:37:14;9.18;;;3.08;;
34497;SDS011;20744;50.938;7.286;2023-05-19T02:39:43;10.60;;;2.83;;
34497;SDS011;20744;50.938;7.286;2023-05-19T02:42:10;9.07;;;2.95;;
34497;SDS011;20744;50.938;7.286;2023-05-19T02:44:41;7.35;;;3.05;;
34497;SDS011;20744;50.938;7.286;2023-05-19T02:47:08;7.50;;;3.28;;
34497;SDS011;20744;50.938;7.286;2023-05-19T02:49:36;8.63;;;2.58;;
34497;SDS011;20744;50.938;7.286;2023-05-19T02:52:03;7.90;;;3.17;;
34497;SDS011;20744;50.938;7.286;2023-05-19T02:54:31;7.03;;;3.20;;
34497;SDS011;20744;50.938;7.286;2023-05-19T02:57:00;11.50;;;3.25;;
34497;SDS011;20744;50.938;7.286;2023-05-19T02:59:27;9.50;;;2.97;;
34497;SDS011;20744;50.938;7.286;2023-05-19T03:02:00;6.10;;;3.00;;
34497;SDS011;20744;50.938;7.286;2023-05-19T03:04:28;6.28;;;2.50;;
34497;SDS011;20744;50.938;7.286;2023-05-19T03:06:55;7.40;;;2.67;;
34497;SDS011;20744;50.938;7.286;2023-05-19T03:09:22;9.23;;;3.55;;
34497;SDS011;20744;50.938;7.286;2023-05-19T03:11:50;11.00;;;3.55;;
34497;SDS011;20744;50.938;7.286;2023-05-19T03:14:18;11.13;;;3.17;;
34497;SDS011;20744;50.938;7.286;2023-05-19T03:16:47;9.18;;;3.20;;
34497;SDS011;20744;50.938;7.286;2023-05-19T03:19:14;9.80;;;3.00;;
34497;SDS011;20744;50.938;7.286;2023-05-19T03:21:42;9.50;;;2.97;;
34497;SDS011;20744;50.938;7.286;2023-05-19T03:24:09;13.43;;;3.45;;
34497;SDS011;20744;50.938;7.286;2023-05-19T03:26:36;8.32;;;3.00;;
34497;SDS011;20744;50.938;7.286;2023-05-19T03:29:04;12.65;;;3.60;;
34497;SDS011;20744;50.938;7.286;2023-05-19T03:31:33;9.90;;;3.03;;
34497;SDS011;20744;50.938;7.286;2023-05-19T03:34:00;8.13;;;3.22;;
34497;SDS011;20744;50.938;7.286;2023-05-19T03:36:28;9.93;;;2.75;;
34497;SDS011;20744;50.938;7.286;2023-05-19T03:38:57;7.28;;;2.65;;
34497;SDS011;20744;50.938;7.286;2023-05-19T03:41:24;10.13;;;3.10;;
34497;SDS011;20744;50.938;7.286;2023-05-19T03:43:51;12.45;;;2.90;;
34497;SDS011;20744;50.938;7.286;2023-05-19T03:46:18;10.13;;;2.90;;
34497;SDS011;20744;50.938;7.286;2023-05-19T03:48:47;7.53;;;2.53;;
34497;SDS011;20744;50.938;7.286;2023-05-19T03:51:14;9.00;;;2.90;;
34497;SDS011;20744;50.938;7.286;2023-05-19T03:53:41;9.73;;;2.83;;
34497;SDS011;20744;50.938;7.286;2023-05-19T03:56:09;8.20;;;3.00;;
34497;SDS011;20744;50.938;7.286;2023-05-19T03:58:37;9.23;;;3.20;;
34497;SDS011;20744;50.938;7.286;2023-05-19T04:01:07;6.68;;;3.33;;
34497;SDS011;20744;50.938;7.286;2023-05-19T04:03:34;9.25;;;3.08;;
34497;SDS011;20744;50.938;7.286;2023-05-19T04:06:03;7.80;;;3.35;;
34497;SDS011;20744;50.938;7.286;2023-05-19T04:08:30;13.43;;;3.40;;
34497;SDS011;20744;50.938;7.286;2023-05-19T04:10:57;8.52;;;2.97;;
34497;SDS011;20744;50.938;7.286;2023-05-19T04:13:25;7.50;;;3.53;;
34497;SDS011;20744;50.938;7.286;2023-05-19T04:15:52;8.82;;;3.38;;
34497;SDS011;20744;50.938;7.286;2023-05-19T04:18:20;6.40;;;3.30;;
34497;SDS011;20744;50.938;7.286;2023-05-19T04:20:47;6.55;;;3.15;;
34497;SDS011;20744;50.938;7.286;2023-05-19T04:23:16;9.80;;;2.88;;
34497;SDS011;20744;50.938;7.286;2023-05-19T04:25:43;6.28;;;3.17;;
34497;SDS011;20744;50.938;7.286;2023-05-19T04:28:12;8.65;;;2.75;;
34497;SDS011;20744;50.938;7.286;2023-05-19T04:30:40;7.65;;;2.55;;
34497;SDS011;20744;50.938;7.286;2023-05-19T04:33:10;8.43;;;2.92;;
34497;SDS011;20744;50.938;7.286;2023-05-19T04:35:38;6.55;;;2.42;;
34497;SDS011;20744;50.938;7.286;2023-05-19T04:38:05;8.00;;;2.78;;
34497;SDS011;20744;50.938;7.286;2023-05-19T04:40:35;7.90;;;2.33;;
34497;SDS011;20744;50.938;7.286;2023-05-19T04:43:04;5.60;;;2.45;;
34497;SDS011;20744;50.938;7.286;2023-05-19T04:45:33;6.53;;;2.78;;
34497;SDS011;20744;50.938;7.286;2023-05-19T04:48:01;12.35;;;2.90;;
34497;SDS011;20744;50.938;7.286;2023-05-19T04:50:29;8.73;;;2.70;;
34497;SDS011;20744;50.938;7.286;2023-05-19T04:52:56;6.97;;;2.35;;
34497;SDS011;20744;50.938;7.286;2023-05-19T04:55:23;6.80;;;2.38;;
34497;SDS011;20744;50.938;7.286;2023-05-19T04:57:52;8.77;;;2.42;;
34497;SDS011;20744;50.938;7.286;2023-05-19T05:00:20;7.95;;;2.47;;
34497;SDS011;20744;50.938;7.286;2023-05-19T05:02:47;8.60;;;2.28;;
34497;SDS011;20744;50.938;7.286;2023-05-19T05:05:14;9.27;;;1.95;;
34497;SDS011;20744;50.938;7.286;2023-05-19T05:07:42;9.27;;;2.30;;
34497;SDS011;20744;50.938;7.286;2023-05-19T05:10:10;6.82;;;2.17;;
34497;SDS011;20744;50.938;7.286;2023-05-19T05:12:37;6.57;;;2.60;;
34497;SDS011;20744;50.938;7.286;2023-05-19T05:15:07;11.07;;;2.38;;
34497;SDS011;20744;50.938;7.286;2023-05-19T05:17:34;7.10;;;2.85;;
34497;SDS011;20744;50.938;7.286;2023-05-19T05:20:02;8.90;;;2.60;;
34497;SDS011;20744;50.938;7.286;2023-05-19T05:22:31;8.43;;;2.75;;
34497;SDS011;20744;50.938;7.286;2023-05-19T05:24:59;11.02;;;2.83;;
34497;SDS011;20744;50.938;7.286;2023-05-19T05:27:26;5.78;;;2.25;;
34497;SDS011;20744;50.938;7.286;2023-05-19T05:29:55;7.80;;;2.40;;
34497;SDS011;20744;50.938;7.286;2023-05-19T05:32:23;9.18;;;2.70;;
34497;SDS011;20744;50.938;7.286;2023-05-19T05:34:51;6.53;;;2.53;;
34497;SDS011;20744;50.938;7.286;2023-05-19T05:37:18;12.15;;;2.70;;
34497;SDS011;20744;50.938;7.286;2023-05-19T05:39:45;6.88;;;2.67;;
34497;SDS011;20744;50.938;7.286;2023-05-19T05:42:13;10.52;;;2.60;;
34497;SDS011;20744;50.938;7.286;2023-05-19T05:44:40;7.93;;;2.58;;
34497;SDS011;20744;50.938;7.286;2023-05-19T05:47:07;11.15;;;2.72;;
34497;SDS011;20744;50.938;7.286;2023-05-19T05:49:37;9.13;;;2.30;;
34497;SDS011;20744;50.938;7.286;2023-05-19T05:52:07;6.05;;;2.00;;
34497;SDS011;20744;50.938;7.286;2023-05-19T05:54:34;7.40;;;2.33;;
34497;SDS011;20744;50.938;7.286;2023-05-19T05:57:02;10.70;;;2.13;;
34497;SDS011;20744;50.938;7.286;2023-05-19T05:59:29;8.98;;;2.30;;
34497;SDS011;20744;50.938;7.286;2023-05-19T06:01:57;6.40;;;2.20;;
34497;SDS011;20744;50.938;7.286;2023-05-19T06:04:25;11.07;;;2.20;;
34497;SDS011;20744;50.938;7.286;2023-05-19T06:06:53;6.00;;;1.85;;
34497;SDS011;20744;50.938;7.286;2023-05-19T06:09:25;6.85;;;2.10;;
34497;SDS011;20744;50.938;7.286;2023-05-19T06:11:52;8.07;;;2.15;;
34497;SDS011;20744;50.938;7.286;2023-05-19T06:14:19;8.38;;;2.00;;
34497;SDS011;20744;50.938;7.286;2023-05-19T06:16:47;10.38;;;2.15;;
34497;SDS011;20744;50.938;7.286;2023-05-19T06:19:14;5.65;;;1.65;;
34497;SDS011;20744;50.938;7.286;2023-05-19T06:21:41;8.43;;;2.13;;
34497;SDS011;20744;50.938;7.286;2023-05-19T06:24:10;7.38;;;2.00;;
34497;SDS011;20744;50.938;7.286;2023-05-19T06:26:37;8.27;;;2.28;;
34497;SDS011;20744;50.938;7.286;2023-05-19T06:29:04;4.80;;;2.00;;
34497;SDS011;20744;50.938;7.286;2023-05-19T06:31:32;11.57;;;1.80;;
34497;SDS011;20744;50.938;7.286;2023-05-19T06:33:59;9.52;;;2.20;;
34497;SDS011;20744;50.938;7.286;2023-05-19T06:36:26;4.60;;;1.33;;
34497;SDS011;20744;50.938;7.286;2023-05-19T06:38:53;8.85;;;1.75;;
34497;SDS011;20744;50.938;7.286;2023-05-19T06:41:23;11.02;;;1.80;;
34497;SDS011;20744;50.938;7.286;2023-05-19T06:43:50;7.80;;;1.52;;
34497;SDS011;20744;50.938;7.286;2023-05-19T06:46:17;5.72;;;1.85;;
34497;SDS011;20744;50.938;7.286;2023-05-19T06:48:44;10.95;;;1.75;;
34497;SDS011;20744;50.938;7.286;2023-05-19T06:51:13;6.93;;;1.48;;
34497;SDS011;20744;50.938;7.286;2023-05-19T06:53:45;5.70;;;1.70;;
34497;SDS011;20744;50.938;7.286;2023-05-19T06:56:12;5.50;;;1.90;;
34497;SDS011;20744;50.938;7.286;2023-05-19T06:58:41;4.90;;;1.50;;
34497;SDS011;20744;50.938;7.286;2023-05-19T07:01:08;5.53;;;1.67;;
34497;SDS011;20744;50.938;7.286;2023-05-19T07:03:36;6.30;;;1.45;;
34497;SDS011;20744;50.938;7.286;2023-05-19T07:06:03;11.50;;;1.85;;
34497;SDS011;20744;50.938;7.286;2023-05-19T07:08:30;11.68;;;2.13;;
34497;SDS011;20744;50.938;7.286;2023-05-19T07:10:58;6.28;;;1.80;;
34497;SDS011;20744;50.938;7.286;2023-05-19T07:13:25;5.53;;;1.70;;
34497;SDS011;20744;50.938;7.286;2023-05-19T07:15:54;10.30;;;1.60;;
34497;SDS011;20744;50.938;7.286;2023-05-19T07:18:21;7.55;;;1.80;;
34497;SDS011;20744;50.938;7.286;2023-05-19T07:20:50;4.97;;;1.42;;
34497;SDS011;20744;50.938;7.286;2023-05-19T07:23:17;10.77;;;1.95;;
34497;SDS011;20744;50.938;7.286;2023-05-19T07:25:45;5.45;;;1.70;;
34497;SDS011;20744;50.938;7.286;2023-05-19T07:28:12;12.32;;;1.67;;
34497;SDS011;20744;50.938;7.286;2023-05-19T07:30:39;7.45;;;1.95;;
34497;SDS011;20744;50.938;7.286;2023-05-19T07:33:08;8.43;;;1.92;;
34497;SDS011;20744;50.938;7.286;2023-05-19T07:35:35;6.78;;;1.27;;
34497;SDS011;20744;50.938;7.286;2023-05-19T07:38:02;8.20;;;2.17;;
34497;SDS011;20744;50.938;7.286;2023-05-19T07:40:31;6.32;;;1.70;;
34497;SDS011;20744;50.938;7.286;2023-05-19T07:42:58;6.47;;;1.73;;
34497;SDS011;20744;50.938;7.286;2023-05-19T07:45:28;5.75;;;1.58;;
34497;SDS011;20744;50.938;7.286;2023-05-19T07:47:55;5.47;;;1.58;;
34497;SDS011;20744;50.938;7.286;2023-05-19T07:50:24;5.00;;;1.67;;
34497;SDS011;20744;50.938;7.286;2023-05-19T07:52:51;6.80;;;1.60;;
34497;SDS011;20744;50.938;7.286;2023-05-19T07:55:18;6.88;;;1.60;;
34497;SDS011;20744;50.938;7.286;2023-05-19T07:57:47;6.63;;;1.45;;
34497;SDS011;20744;50.938;7.286;2023-05-19T08:00:15;5.47;;;1.75;;
34497;SDS011;20744;50.938;7.286;2023-05-19T08:02:42;8.27;;;1.90;;
34497;SDS011;20744;50.938;7.286;2023-05-19T08:05:09;6.57;;;1.58;;
34497;SDS011;20744;50.938;7.286;2023-05-19T08:07:38;7.18;;;1.70;;
34497;SDS011;20744;50.938;7.286;2023-05-19T08:10:06;5.45;;;1.35;;
34497;SDS011;20744;50.938;7.286;2023-05-19T08:12:33;7.65;;;1.58;;
34497;SDS011;20744;50.938;7.286;2023-05-19T08:15:00;5.95;;;1.83;;
34497;SDS011;20744;50.938;7.286;2023-05-19T08:17:27;5.43;;;1.30;;
34497;SDS011;20744;50.938;7.286;2023-05-19T08:19:55;5.50;;;1.30;;
34497;SDS011;20744;50.938;7.286;2023-05-19T08:22:22;8.38;;;1.45;;
34497;SDS011;20744;50.938;7.286;2023-05-19T08:24:51;7.95;;;1.73;;
34497;SDS011;20744;50.938;7.286;2023-05-19T08:27:18;8.07;;;1.63;;
34497;SDS011;20744;50.938;7.286;2023-05-19T08:29:45;6.97;;;1.63;;
34497;SDS011;20744;50.938;7.286;2023-05-19T08:32:13;5.50;;;1.40;;
34497;SDS011;20744;50.938;7.286;2023-05-19T08:34:41;6.95;;;1.75;;
34497;SDS011;20744;50.938;7.286;2023-05-19T08:37:08;4.57;;;1.40;;
34497;SDS011;20744;50.938;7.286;2023-05-19T08:39:36;6.35;;;1.60;;
34497;SDS011;20744;50.938;7.286;2023-05-19T08:42:05;9.20;;;1.73;;
34497;SDS011;20744;50.938;7.286;2023-05-19T08:44:33;4.00;;;1.20;;
34497;SDS011;20744;50.938;7.286;2023-05-19T08:47:02;6.07;;;1.63;;
34497;SDS011;20744;50.938;7.286;2023-05-19T08:49:32;8.90;;;1.67;;
34497;SDS011;20744;50.938;7.286;2023-05-19T08:54:44;6.60;;;1.70;;
34497;SDS011;20744;50.938;7.286;2023-05-19T08:57:14;5.10;;;1.60;;
34497;SDS011;20744;50.938;7.286;2023-05-19T08:59:41;4.95;;;1.70;;
34497;SDS011;20744;50.938;7.286;2023-05-19T09:02:09;5.18;;;1.52;;
34497;SDS011;20744;50.938;7.286;2023-05-19T09:04:37;5.20;;;1.25;;
34497;SDS011;20744;50.938;7.286;2023-05-19T09:07:04;4.63;;;1.63;;
34497;SDS011;20744;50.938;7.286;2023-05-19T09:09:33;5.68;;;1.73;;
34497;SDS011;20744;50.938;7.286;2023-05-19T09:12:00;6.50;;;1.27;;
34497;SDS011;20744;50.938;7.286;2023-05-19T09:14:29;6.78;;;1.67;;
34497;SDS011;20744;50.938;7.286;2023-05-19T09:16:56;7.47;;;1.58;;
34497;SDS011;20744;50.938;7.286;2023-05-19T09:19:23;6.10;;;1.60;;
34497;SDS011;20744;50.938;7.286;2023-05-19T09:21:56;5.40;;;1.90;;
34497;SDS011;20744;50.938;7.286;2023-05-19T09:24:25;3.80;;;1.38;;
34497;SDS011;20744;50.938;7.286;2023-05-19T09:26:53;6.80;;;1.60;;
34497;SDS011;20744;50.938;7.286;2023-05-19T09:29:21;7.40;;;1.77;;
34497;SDS011;20744;50.938;7.286;2023-05-19T09:31:50;5.35;;;1.75;;
34497;SDS011;20744;50.938;7.286;2023-05-19T09:34:18;4.90;;;1.50;;
34497;SDS011;20744;50.938;7.286;2023-05-19T09:36:48;7.90;;;1.67;;
34497;SDS011;20744;50.938;7.286;2023-05-19T09:39:16;7.10;;;1.77;;
34497;SDS011;20744;50.938;7.286;2023-05-19T09:41:43;4.95;;;1.50;;
34497;SDS011;20744;50.938;7.286;2023-05-19T09:44:20;5.15;;;1.50;;
34497;SDS011;20744;50.938;7.286;2023-05-19T09:46:49;5.25;;;1.58;;
34497;SDS011;20744;50.938;7.286;2023-05-19T09:49:20;7.30;;;1.92;;
34497;SDS011;20744;50.938;7.286;2023-05-19T09:51:48;7.88;;;1.63;;
34497;SDS011;20744;50.938;7.286;2023-05-19T09:54:16;7.68;;;1.83;;
34497;SDS011;20744;50.938;7.286;2023-05-19T09:56:43;6.05;;;1.83;;
34497;SDS011;20744;50.938;7.286;2023-05-19T09:59:11;5.93;;;1.40;;
34497;SDS011;20744;50.938;7.286;2023-05-19T10:01:40;4.97;;;1.40;;
34497;SDS011;20744;50.938;7.286;2023-05-19T10:04:11;3.25;;;1.23;;
34497;SDS011;20744;50.938;7.286;2023-05-19T10:06:39;5.30;;;1.45;;
34497;SDS011;20744;50.938;7.286;2023-05-19T10:09:06;4.20;;;1.20;;
34497;SDS011;20744;50.938;7.286;2023-05-19T10:11:34;6.70;;;2.30;;
34497;SDS011;20744;50.938;7.286;2023-05-19T10:14:01;9.50;;;3.00;;
34497;SDS011;20744;50.938;7.286;2023-05-19T10:16:28;10.50;;;4.90;;
34497;SDS011;20744;50.938;7.286;2023-05-19T10:18:56;16.77;;;5.07;;
34497;SDS011;20744;50.938;7.286;2023-05-19T10:21:25;11.00;;;5.07;;
34497;SDS011;20744;50.938;7.286;2023-05-19T10:23:52;12.95;;;5.30;;
34497;SDS011;20744;50.938;7.286;2023-05-19T10:26:20;12.25;;;2.05;;
34497;SDS011;20744;50.938;7.286;2023-05-19T10:28:48;8.70;;;1.75;;
34497;SDS011;20744;50.938;7.286;2023-05-19T10:31:16;7.22;;;1.63;;
34497;SDS011;20744;50.938;7.286;2023-05-19T10:36:34;5.60;;;1.50;;
34497;SDS011;20744;50.938;7.286;2023-05-19T10:39:05;5.43;;;1.75;;
34497;SDS011;20744;50.938;7.286;2023-05-19T10:41:34;8.13;;;1.75;;
34497;SDS011;20744;50.938;7.286;2023-05-19T10:44:06;5.22;;;1.60;;
34497;SDS011;20744;50.938;7.286;2023-05-19T10:46:35;4.15;;;1.60;;
34497;SDS011;20744;50.938;7.286;2023-05-19T10:49:02;5.43;;;1.70;;
34497;SDS011;20744;50.938;7.286;2023-05-19T10:51:30;4.43;;;1.75;;
34497;SDS011;20744;50.938;7.286;2023-05-19T10:53:58;8.80;;;1.50;;
34497;SDS011;20744;50.938;7.286;2023-05-19T10:56:28;9.38;;;1.60;;
34497;SDS011;20744;50.938;7.286;2023-05-19T10:58:57;5.25;;;1.80;;
34497;SDS011;20744;50.938;7.286;2023-05-19T11:01:28;7.25;;;1.90;;
34497;SDS011;20744;50.938;7.286;2023-05-19T11:03:56;4.75;;;1.52;;
34497;SDS011;20744;50.938;7.286;2023-05-19T11:06:24;6.65;;;1.50;;
34497;SDS011;20744;50.938;7.286;2023-05-19T11:08:52;4.35;;;1.42;;
34497;SDS011;20744;50.938;7.286;2023-05-19T11:11:21;5.70;;;1.55;;
34497;SDS011;20744;50.938;7.286;2023-05-19T11:13:53;6.07;;;2.00;;
34497;SDS011;20744;50.938;7.286;2023-05-19T11:16:27;5.82;;;1.30;;
34497;SDS011;20744;50.938;7.286;2023-05-19T11:18:54;4.70;;;1.50;;
34497;SDS011;20744;50.938;7.286;2023-05-19T11:21:22;9.75;;;1.65;;
34497;SDS011;20744;50.938;7.286;2023-05-19T11:23:49;8.38;;;1.63;;
34497;SDS011;20744;50.938;7.286;2023-05-19T11:29:01;9.23;;;1.65;;
34497;SDS011;20744;50.938;7.286;2023-05-19T11:31:28;5.40;;;1.92;;
34497;SDS011;20744;50.938;7.286;2023-05-19T11:33:55;4.63;;;1.40;;
34497;SDS011;20744;50.938;7.286;2023-05-19T11:36:23;6.90;;;1.67;;
34497;SDS011;20744;50.938;7.286;2023-05-19T11:38:50;5.88;;;1.70;;
34497;SDS011;20744;50.938;7.286;2023-05-19T11:41:17;6.47;;;1.58;;
34497;SDS011;20744;50.938;7.286;2023-05-19T11:43:46;6.55;;;1.60;;
34497;SDS011;20744;50.938;7.286;2023-05-19T11:46:14;7.07;;;1.40;;
34497;SDS011;20744;50.938;7.286;2023-05-19T11:48:41;5.07;;;1.40;;
34497;SDS011;20744;50.938;7.286;2023-05-19T11:51:12;3.35;;;1.17;;
34497;SDS011;20744;50.938;7.286;2023-05-19T11:53:40;6.75;;;1.70;;
34497;SDS011;20744;50.938;7.286;2023-05-19T11:56:08;5.05;;;1.30;;
34497;SDS011;20744;50.938;7.286;2023-05-19T11:58:39;6.03;;;1.30;;
34497;SDS011;20744;50.938;7.286;2023-05-19T12:01:06;4.65;;;1.55;;
34497;SDS011;20744;50.938;7.286;2023-05-19T12:03:35;4.97;;;1.40;;
34497;SDS011;20744;50.938;7.286;2023-05-19T12:06:03;9.43;;;1.95;;
34497;SDS011;20744;50.938;7.286;2023-05-19T12:08:32;9.73;;;1.77;;
34497;SDS011;20744;50.938;7.286;2023-05-19T12:11:00;5.20;;;1.45;;
34497;SDS011;20744;50.938;7.286;2023-05-19T12:13:27;8.07;;;1.70;;
34497;SDS011;20744;50.938;7.286;2023-05-19T12:15:58;5.03;;;1.25;;
34497;SDS011;20744;50.938;7.286;2023-05-19T12:18:27;6.82;;;1.50;;
34497;SDS011;20744;50.938;7.286;2023-05-19T12:20:57;4.13;;;1.30;;
34497;SDS011;20744;50.938;7.286;2023-05-19T12:23:24;4.05;;;1.23;;
34497;SDS011;20744;50.938;7.286;2023-05-19T12:25:54;4.40;;;1.30;;
34497;SDS011;20744;50.938;7.286;2023-05-19T12:28:23;4.45;;;1.35;;
34497;SDS011;20744;50.938;7.286;2023-05-19T12:30:50;5.90;;;1.27;;
34497;SDS011;20744;50.938;7.286;2023-05-19T12:33:18;5.60;;;1.70;;
34497;SDS011;20744;50.938;7.286;2023-05-19T12:35:47;5.80;;;1.33;;
34497;SDS011;20744;50.938;7.286;2023-05-19T12:38:17;3.35;;;1.27;;
34497;SDS011;20744;50.938;7.286;2023-05-19T12:40:45;4.90;;;1.35;;
34497;SDS011;20744;50.938;7.286;2023-05-19T12:43:19;4.35;;;1.60;;
34497;SDS011;20744;50.938;7.286;2023-05-19T12:45:46;7.65;;;1.55;;
34497;SDS011;20744;50.938;7.286;2023-05-19T12:48:14;5.93;;;1.55;;
34497;SDS011;20744;50.938;7.286;2023-05-19T12:50:42;3.25;;;1.42;;
34497;SDS011;20744;50.938;7.286;2023-05-19T12:53:11;4.85;;;1.40;;
34497;SDS011;20744;50.938;7.286;2023-05-19T12:55:40;6.53;;;1.58;;
34497;SDS011;20744;50.938;7.286;2023-05-19T12:58:08;4.00;;;1.45;;
34497;SDS011;20744;50.938;7.286;2023-05-19T13:00:39;6.93;;;1.80;;
34497;SDS011;20744;50.938;7.286;2023-05-19T13:03:08;4.60;;;1.58;;
34497;SDS011;20744;50.938;7.286;2023-05-19T13:05:41;4.13;;;1.23;;
34497;SDS011;20744;50.938;7.286;2023-05-19T13:08:09;4.25;;;1.60;;
34497;SDS011;20744;50.938;7.286;2023-05-19T13:10:37;4.60;;;1.23;;
34497;SDS011;20744;50.938;7.286;2023-05-19T13:13:08;4.60;;;1.10;;
34497;SDS011;20744;50.938;7.286;2023-05-19T13:15:36;5.28;;;1.42;;
34497;SDS011;20744;50.938;7.286;2023-05-19T13:18:04;5.30;;;1.20;;
34497;SDS011;20744;50.938;7.286;2023-05-19T13:20:32;7.72;;;1.63;;
34497;SDS011;20744;50.938;7.286;2023-05-19T13:23:00;4.10;;;1.58;;
34497;SDS011;20744;50.938;7.286;2023-05-19T13:25:27;3.90;;;1.50;;
34497;SDS011;20744;50.938;7.286;2023-05-19T13:27:54;2.90;;;1.30;;
34497;SDS011;20744;50.938;7.286;2023-05-19T13:30:24;4.10;;;1.50;;
34497;SDS011;20744;50.938;7.286;2023-05-19T13:32:52;3.85;;;1.42;;
34497;SDS011;20744;50.938;7.286;2023-05-19T13:35:19;5.18;;;1.30;;
34497;SDS011;20744;50.938;7.286;2023-05-19T13:37:47;4.18;;;1.33;;
34497;SDS011;20744;50.938;7.286;2023-05-19T13:40:15;4.03;;;1.30;;
34497;SDS011;20744;50.938;7.286;2023-05-19T13:42:42;4.18;;;1.40;;
34497;SDS011;20744;50.938;7.286;2023-05-19T13:45:10;5.25;;;1.42;;
34497;SDS011;20744;50.938;7.286;2023-05-19T13:47:39;2.50;;;1.20;;
34497;SDS011;20744;50.938;7.286;2023-05-19T13:50:06;6.80;;;1.45;;
34497;SDS011;20744;50.938;7.286;2023-05-19T13:52:33;5.88;;;1.30;;
34497;SDS011;20744;50.938;7.286;2023-05-19T13:55:00;3.58;;;1.27;;
34497;SDS011;20744;50.938;7.286;2023-05-19T13:57:28;4.53;;;1.52;;
34497;SDS011;20744;50.938;7.286;2023-05-19T13:59:55;4.20;;;1.33;;
34497;SDS011;20744;50.938;7.286;2023-05-19T14:02:22;3.25;;;1.40;;
34497;SDS011;20744;50.938;7.286;2023-05-19T14:04:51;6.03;;;1.50;;
34497;SDS011;20744;50.938;7.286;2023-05-19T14:07:18;6.05;;;1.30;;
34497;SDS011;20744;50.938;7.286;2023-05-19T14:09:45;6.15;;;1.42;;
34497;SDS011;20744;50.938;7.286;2023-05-19T14:12:15;4.13;;;1.30;;
34497;SDS011;20744;50.938;7.286;2023-05-19T14:14:42;5.60;;;1.73;;
34497;SDS011;20744;50.938;7.286;2023-05-19T14:17:09;5.93;;;1.52;;
34497;SDS011;20744;50.938;7.286;2023-05-19T14:19:36;3.45;;;1.45;;
34497;SDS011;20744;50.938;7.286;2023-05-19T14:22:05;5.57;;;1.33;;
34497;SDS011;20744;50.938;7.286;2023-05-19T14:24:33;4.93;;;1.45;;
34497;SDS011;20744;50.938;7.286;2023-05-19T14:27:00;4.80;;;1.40;;
34497;SDS011;20744;50.938;7.286;2023-05-19T14:29:27;4.97;;;1.23;;
34497;SDS011;20744;50.938;7.286;2023-05-19T14:31:55;4.32;;;1.30;;
34497;SDS011;20744;50.938;7.286;2023-05-19T14:34:22;5.93;;;1.40;;
34497;SDS011;20744;50.938;7.286;2023-05-19T14:36:49;6.38;;;1.50;;
34497;SDS011;20744;50.938;7.286;2023-05-19T14:39:18;6.60;;;1.90;;
34497;SDS011;20744;50.938;7.286;2023-05-19T14:41:45;6.70;;;1.48;;
34497;SDS011;20744;50.938;7.286;2023-05-19T14:44:13;6.65;;;1.55;;
34497;SDS011;20744;50.938;7.286;2023-05-19T14:46:40;2.67;;;1.30;;
34497;SDS011;20744;50.938;7.286;2023-05-19T14:49:07;4.32;;;1.10;;
34497;SDS011;20744;50.938;7.286;2023-05-19T14:51:35;7.40;;;1.48;;
34497;SDS011;20744;50.938;7.286;2023-05-19T14:54:02;4.15;;;1.10;;
34497;SDS011;20744;50.938;7.286;2023-05-19T14:56:31;3.08;;;1.05;;
34497;SDS011;20744;50.938;7.286;2023-05-19T14:58:58;6.47;;;1.13;;